Time;durP1;ratioP1;P1;durP2;ratioP2;P2;SDS_P1;SDS_P2;PMS_P1;PMS_P2;Temp;Humidity;BMP_temperature;BMP_pressure;BME280_temperature;BME280_humidity;BME280_pressure;Samples;Min_cycle;Max_cycle;Signal;HPM_P1;HPM_P2
2022/05/07 00:01:32;;;;;;;7.82;3.03;;;;;;;14.93;23.44;100354.75;5018298;28;20144;-75
2022/05/07 00:03:57;;;;;;;13.63;2.88;;;;;;;14.86;23.61;100349.28;5034997;28;20532;-75
2022/05/07 00:06:23;;;;;;;11.27;3.35;;;;;;;14.93;23.62;100354.75;5017455;28;20049;-73
2022/05/07 00:08:49;;;;;;;9.63;3.35;;;;;;;14.75;23.43;100319.34;5033532;28;20041;-74
2022/05/07 00:11:20;;;;;;;13.27;3.25;;;;;;;14.85;23.73;100365.50;5031756;28;20705;-73
2022/05/07 00:13:50;;;;;;;5.53;3.15;;;;;;;14.98;23.36;100363.97;5015585;28;20723;-73
2022/05/07 00:19:00;;;;;;;10.40;2.95;;;;;;;14.70;23.61;100364.47;5031599;28;20079;-73
2022/05/07 00:21:26;;;;;;;8.27;3.80;;;;;;;14.76;23.97;100356.63;4999124;28;20041;-74
2022/05/07 00:23:53;;;;;;;8.30;2.90;;;;;;;14.62;24.12;100356.47;5014866;28;20077;-73
2022/05/07 00:26:19;;;;;;;13.48;3.22;;;;;;;14.58;24.16;100369.31;4999282;28;20041;-73
2022/05/07 00:28:46;;;;;;;9.00;3.25;;;;;;;14.71;24.00;100367.00;5001308;28;20048;-73
2022/05/07 00:31:12;;;;;;;5.38;3.20;;;;;;;14.78;23.90;100365.31;5018364;28;20523;-73
2022/05/07 00:33:38;;;;;;;6.22;2.90;;;;;;;14.71;23.97;100377.69;5020246;28;20049;-74
2022/05/07 00:36:04;;;;;;;12.07;2.83;;;;;;;14.81;23.58;100366.81;5034423;28;20052;-74
2022/05/07 00:38:30;;;;;;;9.10;3.15;;;;;;;14.59;23.98;100362.13;5001300;28;20626;-75
2022/05/07 00:40:56;;;;;;;11.95;3.53;;;;;;;14.57;24.10;100369.47;5016876;28;20529;-74
2022/05/07 00:43:23;;;;;;;8.02;3.20;;;;;;;14.67;23.84;100378.16;5033463;28;20136;-74
2022/05/07 00:45:50;;;;;;;9.98;3.30;;;;;;;14.84;23.81;100370.00;5000067;28;20052;-74
2022/05/07 00:48:16;;;;;;;6.72;3.30;;;;;;;14.73;23.96;100373.00;5000373;28;20072;-74
2022/05/07 00:53:28;;;;;;;7.53;3.20;;;;;;;14.59;24.34;100346.91;5033140;28;20061;-73
2022/05/07 00:55:53;;;;;;;7.85;3.20;;;;;;;14.52;24.15;100361.97;5033529;28;20263;-74
2022/05/07 00:58:19;;;;;;;6.10;2.95;;;;;;;14.51;24.34;100368.31;5016763;28;20041;-74
2022/05/07 01:00:45;;;;;;;8.70;3.20;;;;;;;14.50;24.09;100360.47;5032668;28;20052;-73
2022/05/07 01:03:12;;;;;;;4.68;2.65;;;;;;;14.44;24.29;100348.56;5016801;28;20409;-71
2022/05/07 01:05:39;;;;;;;10.63;3.60;;;;;;;14.45;24.41;100352.09;5033554;28;20124;-74
2022/05/07 01:08:12;;;;;;;8.35;3.22;;;;;;;14.53;24.41;100350.25;5033077;28;20136;-74
2022/05/07 01:10:41;;;;;;;10.88;3.38;;;;;;;14.37;24.67;100352.06;5017847;28;20535;-75
2022/05/07 01:13:07;;;;;;;10.45;4.05;;;;;;;14.41;24.43;100367.63;5034105;28;20052;-75
2022/05/07 01:15:42;;;;;;;8.50;2.85;;;;;;;14.45;24.70;100354.78;5034309;28;20052;-74
2022/05/07 01:18:12;;;;;;;7.43;2.97;;;;;;;14.40;24.70;100365.97;5034616;28;20060;-74
2022/05/07 01:20:38;;;;;;;8.30;3.05;;;;;;;14.32;24.62;100344.56;5016643;28;20139;-74
2022/05/07 01:23:05;;;;;;;11.27;3.10;;;;;;;14.32;24.80;100359.75;5048935;28;20575;-74
2022/05/07 01:25:31;;;;;;;12.68;3.10;;;;;;;14.32;24.87;100359.75;4981540;28;20496;-74
2022/05/07 01:27:57;;;;;;;5.47;2.85;;;;;;;14.19;25.13;100346.00;4997608;28;20037;-74
2022/05/07 01:30:24;;;;;;;6.10;2.83;;;;;;;14.25;25.18;100366.75;5030468;28;20078;-75
2022/05/07 01:32:50;;;;;;;12.75;3.20;;;;;;;14.16;25.10;100354.34;5014092;28;20052;-74
2022/05/07 01:35:17;;;;;;;16.95;3.13;;;;;;;14.20;25.05;100356.53;5014226;28;20439;-74
2022/05/07 01:37:44;;;;;;;12.57;2.83;;;;;;;14.16;25.17;100341.00;4998194;28;20079;-74
2022/05/07 01:40:13;;;;;;;5.93;3.15;;;;;;;14.21;24.99;100358.19;5016076;28;20076;-75
2022/05/07 01:42:42;;;;;;;13.82;3.00;;;;;;;13.92;25.31;100328.41;4985109;28;20041;-74
2022/05/07 01:45:10;;;;;;;10.77;3.20;;;;;;;14.15;25.19;100364.19;5016347;28;20504;-74
2022/05/07 01:50:26;;;;;;;6.78;3.00;;;;;;;14.15;24.98;100353.50;5032516;28;20186;-73
2022/05/07 01:52:52;;;;;;;7.38;2.70;;;;;;;14.19;25.21;100354.03;5016022;28;20127;-75
2022/05/07 01:55:19;;;;;;;11.50;2.47;;;;;;;14.20;25.09;100361.03;5034052;28;20041;-74
2022/05/07 01:57:48;;;;;;;10.52;3.20;;;;;;;14.18;25.34;100363.00;5034081;28;20072;-74
2022/05/07 02:00:14;;;;;;;5.35;2.80;;;;;;;13.74;25.08;100286.78;5003652;28;20076;-73
2022/05/07 02:02:41;;;;;;;14.32;3.22;;;;;;;13.92;25.42;100347.09;5020937;28;20049;-73
2022/05/07 02:05:15;;;;;;;10.35;2.95;;;;;;;13.96;25.52;100332.41;5021712;28;20044;-72
2022/05/07 02:07:41;;;;;;;8.05;3.08;;;;;;;14.10;25.63;100349.66;5020249;28;20037;-73
2022/05/07 02:10:08;;;;;;;10.82;3.20;;;;;;;14.09;25.90;100356.00;5019945;28;20045;-72
2022/05/07 02:12:34;;;;;;;12.50;3.00;;;;;;;14.05;25.56;100357.31;5003523;28;20494;-74
2022/05/07 02:15:00;;;;;;;9.65;2.88;;;;;;;13.85;25.90;100326.53;4987246;28;20566;-74
2022/05/07 02:17:29;;;;;;;6.55;2.63;;;;;;;14.04;25.59;100366.34;5020592;28;20520;-75
2022/05/07 02:19:55;;;;;;;8.43;2.97;;;;;;;13.98;25.65;100356.28;5035928;28;20120;-75
2022/05/07 02:22:21;;;;;;;11.40;3.10;;;;;;;14.00;25.83;100368.50;5036232;28;20076;-75
2022/05/07 02:24:47;;;;;;;4.88;3.00;;;;;;;13.98;25.77;100374.97;5019502;28;20111;-74
2022/05/07 02:27:20;;;;;;;12.63;3.17;;;;;;;14.04;25.88;100371.69;5035771;28;20033;-71
2022/05/07 02:29:46;;;;;;;5.90;2.63;;;;;;;13.83;25.73;100341.88;5019632;28;20503;-72
2022/05/07 02:32:13;;;;;;;8.30;3.25;;;;;;;14.06;25.87;100365.19;5036055;28;20489;-71
2022/05/07 02:34:43;;;;;;;6.80;2.88;;;;;;;14.12;25.87;100371.69;5052472;28;20063;-71
2022/05/07 02:37:17;;;;;;;14.38;3.80;;;;;;;14.00;26.11;100376.50;5005256;28;20060;-71
2022/05/07 02:39:49;;;;;;;6.97;2.95;;;;;;;14.07;25.70;100371.38;5052712;28;20057;-71
2022/05/07 02:45:09;;;;;;;9.07;3.10;;;;;;;14.28;25.60;100369.94;5022777;28;20057;-71
2022/05/07 02:47:36;;;;;;;11.43;3.42;;;;;;;14.20;25.80;100385.91;5019229;28;20493;-70
2022/05/07 02:50:07;;;;;;;10.23;2.97;;;;;;;14.35;26.01;100378.97;5035796;28;20120;-69
2022/05/07 02:52:33;;;;;;;10.05;3.00;;;;;;;14.13;25.76;100376.06;5035675;28;20481;-70
2022/05/07 02:55:02;;;;;;;6.05;2.97;;;;;;;14.26;25.63;100382.63;5003573;28;20489;-69
2022/05/07 02:57:29;;;;;;;9.48;2.80;;;;;;;14.12;25.85;100359.19;5035546;28;20049;-71
2022/05/07 02:59:55;;;;;;;10.27;3.53;;;;;;;14.33;25.88;100380.16;5035171;28;20051;-70
2022/05/07 03:02:21;;;;;;;11.60;2.90;;;;;;;14.33;25.67;100377.47;5035255;28;20225;-70
2022/05/07 03:04:52;;;;;;;5.80;2.67;;;;;;;14.38;25.75;100383.97;5018951;28;20072;-71
2022/05/07 03:07:17;;;;;;;16.02;3.33;;;;;;;14.45;25.75;100376.16;5052269;28;20040;-71
2022/05/07 03:09:44;;;;;;;9.73;3.20;;;;;;;14.33;25.74;100348.06;5052042;28;20056;-70
2022/05/07 03:12:12;;;;;;;12.77;2.80;;;;;;;14.43;25.80;100379.00;5051460;28;20041;-70
2022/05/07 03:14:40;;;;;;;12.35;2.78;;;;;;;14.58;25.97;100381.84;5035071;28;20048;-70
2022/05/07 03:17:07;;;;;;;10.68;3.33;;;;;;;14.54;25.81;100372.50;5051226;28;20131;-69
2022/05/07 03:19:32;;;;;;;6.03;2.65;;;;;;;14.49;25.92;100367.63;5018501;28;20146;-69
2022/05/07 03:21:58;;;;;;;10.32;3.28;;;;;;;14.42;26.00;100357.78;5018251;28;20037;-69
2022/05/07 03:24:27;;;;;;;9.10;2.83;;;;;;;14.69;25.80;100392.22;5018992;28;20144;-69
2022/05/07 03:26:56;;;;;;;9.95;3.00;;;;;;;14.57;25.81;100369.47;5034989;28;20487;-71
2022/05/07 03:29:23;;;;;;;9.07;2.88;;;;;;;14.59;25.77;100387.00;5051348;28;20049;-71
2022/05/07 03:31:55;;;;;;;4.32;2.50;;;;;;;14.75;25.71;100378.16;5051102;28;20047;-71
2022/05/07 03:34:21;;;;;;;10.23;3.17;;;;;;;14.66;26.02;100357.78;5051182;28;20517;-71
2022/05/07 03:36:48;;;;;;;7.03;2.83;;;;;;;14.72;26.19;100390.06;5052662;28;20103;-71
2022/05/07 03:39:14;;;;;;;8.02;2.70;;;;;;;14.82;26.46;100390.72;5034458;28;20444;-71
2022/05/07 03:41:40;;;;;;;11.68;3.03;;;;;;;14.79;26.27;100387.56;5034248;28;20102;-71
2022/05/07 03:44:08;;;;;;;7.13;3.00;;;;;;;14.80;26.10;100375.84;5018366;28;20064;-70
2022/05/07 03:46:33;;;;;;;8.70;2.63;;;;;;;15.04;25.80;100392.72;5034432;28;20404;-71
2022/05/07 03:49:01;;;;;;;10.38;3.10;;;;;;;15.07;26.01;100386.19;5052056;28;20144;-71
2022/05/07 03:51:29;;;;;;;9.75;3.30;;;;;;;15.30;25.65;100389.84;5018126;28;20527;-71
2022/05/07 03:54:05;;;;;;;9.30;3.28;;;;;;;15.44;25.51;100380.34;5017717;28;20497;-71
2022/05/07 03:56:32;;;;;;;6.90;2.65;;;;;;;15.51;25.04;100392.88;5034150;28;20072;-70
2022/05/07 03:59:01;;;;;;;6.15;3.13;;;;;;;15.65;25.29;100392.16;5017567;28;20037;-70
2022/05/07 04:01:47;;;;;;;8.32;3.03;;;;;;;15.83;25.15;100387.41;5051935;28;20099;-71
2022/05/07 04:04:12;;;;;;;5.85;2.78;;;;;;;16.03;25.06;100391.34;5034248;28;20068;-70
2022/05/07 04:06:39;;;;;;;8.95;3.10;;;;;;;16.11;24.94;100385.94;5017590;28;20052;-71
2022/05/07 04:09:04;;;;;;;8.05;2.70;;;;;;;16.19;24.84;100391.22;5017942;28;20099;-70
2022/05/07 04:11:31;;;;;;;5.45;2.63;;;;;;;16.38;24.27;100385.44;5002181;28;20489;-71
2022/05/07 04:13:59;;;;;;;5.80;2.83;;;;;;;16.53;24.08;100386.38;5034475;28;20103;-70
2022/05/07 04:16:27;;;;;;;7.35;2.80;;;;;;;16.75;23.86;100388.25;5017436;28;20485;-71
2022/05/07 04:19:07;;;;;;;12.70;3.35;;;;;;;16.91;23.33;100386.44;5033463;28;20148;-71
2022/05/07 04:21:34;;;;;;;8.95;2.65;;;;;;;17.06;23.31;100387.31;5033978;28;20037;-70
2022/05/07 04:24:21;;;;;;;10.90;3.13;;;;;;;17.14;22.91;100392.59;5066919;28;20044;-71
2022/05/07 04:26:52;;;;;;;12.02;3.13;;;;;;;17.15;22.83;100381.69;5017472;28;20041;-71
2022/05/07 04:29:17;;;;;;;8.65;2.80;;;;;;;17.16;22.90;100383.34;5000856;28;20044;-70
2022/05/07 04:31:47;;;;;;;14.73;3.38;;;;;;;17.22;22.40;100387.16;5017616;28;20128;-70
2022/05/07 04:34:13;;;;;;;9.00;2.70;;;;;;;17.08;22.64;100375.38;5049854;28;20056;-70
2022/05/07 04:36:40;;;;;;;6.28;2.88;;;;;;;16.87;22.91;100366.34;5033577;28;20424;-72
2022/05/07 04:39:11;;;;;;;7.22;2.90;;;;;;;16.98;22.79;100384.69;5017994;28;20044;-72
2022/05/07 04:41:52;;;;;;;12.20;3.00;;;;;;;16.76;22.74;100381.00;5033859;28;20048;-72
2022/05/07 04:44:30;;;;;;;9.48;3.63;;;;;;;16.68;23.25;100381.09;5018089;28;20036;-71
2022/05/07 04:46:57;;;;;;;4.68;2.67;;;;;;;16.75;23.29;100374.81;5017062;28;20049;-71
2022/05/07 04:49:24;;;;;;;5.18;3.33;;;;;;;16.85;23.44;100370.03;5016926;28;20045;-71
2022/05/07 04:51:50;;;;;;;7.07;2.97;;;;;;;16.79;23.49;100378.81;5033729;28;20041;-71
2022/05/07 04:54:20;;;;;;;6.10;2.92;;;;;;;16.77;23.13;100372.78;5050754;28;20048;-70
2022/05/07 04:56:47;;;;;;;9.70;3.40;;;;;;;16.82;23.28;100374.94;5033250;28;20127;-71
2022/05/07 04:59:19;;;;;;;12.25;2.85;;;;;;;16.98;23.24;100365.91;5050618;28;20041;-71
2022/05/07 05:01:50;;;;;;;6.25;2.80;;;;;;;16.71;23.38;100353.91;5051270;28;20119;-71
2022/05/07 05:04:20;;;;;;;14.95;3.25;;;;;;;16.98;22.93;100369.41;5033856;28;20052;-71
2022/05/07 05:06:48;;;;;;;7.90;2.58;;;;;;;17.04;23.22;100362.47;5032475;28;20079;-71
2022/05/07 05:09:22;;;;;;;18.20;2.92;;;;;;;17.13;23.10;100366.78;5017570;28;20048;-71
2022/05/07 05:12:00;;;;;;;9.25;3.00;;;;;;;17.15;22.84;100372.78;5017870;28;20407;-71
2022/05/07 05:17:10;;;;;;;6.50;3.17;;;;;;;17.38;23.22;100374.41;5032464;28;20061;-71
2022/05/07 05:19:42;;;;;;;12.75;3.30;;;;;;;17.45;22.93;100366.50;5016941;28;20409;-70
2022/05/07 05:22:13;;;;;;;6.65;3.00;;;;;;;17.49;22.80;100365.09;5017072;28;20047;-72
2022/05/07 05:24:38;;;;;;;9.25;2.78;;;;;;;17.70;22.48;100371.38;5032822;28;20139;-72
2022/05/07 05:27:04;;;;;;;6.55;2.50;;;;;;;17.86;22.48;100362.31;5032932;28;20146;-74
2022/05/07 05:29:37;;;;;;;6.68;2.47;;;;;;;17.85;22.04;100339.16;5033029;28;20052;-71
2022/05/07 05:32:07;;;;;;;6.30;2.40;;;;;;;18.03;22.14;100353.00;5049582;28;20485;-73
2022/05/07 05:34:35;;;;;;;5.95;2.78;;;;;;;18.16;22.02;100363.91;5032991;28;20041;-72
2022/05/07 05:37:03;;;;;;;9.45;2.92;;;;;;;18.22;22.19;100355.94;5016373;28;20072;-72
2022/05/07 05:39:31;;;;;;;5.95;2.47;;;;;;;18.45;21.79;100371.94;5032994;28;20136;-71
2022/05/07 05:41:59;;;;;;;6.85;2.80;;;;;;;18.61;21.38;100363.63;5016083;28;20136;-71
2022/05/07 05:44:27;;;;;;;7.35;3.10;;;;;;;18.60;21.41;100337.75;5032553;28;20045;-71
2022/05/07 05:46:53;;;;;;;7.10;2.53;;;;;;;18.95;20.79;100362.91;5050685;28;20508;-72
2022/05/07 05:49:20;;;;;;;7.25;2.50;;;;;;;19.05;21.08;100358.84;5048841;28;20472;-73
2022/05/07 05:51:46;;;;;;;9.07;2.85;;;;;;;19.21;20.66;100363.94;5032495;28;20133;-73
2022/05/07 05:54:12;;;;;;;7.13;2.75;;;;;;;19.38;20.15;100368.03;5032234;28;20053;-71
2022/05/07 05:56:39;;;;;;;9.05;2.63;;;;;;;19.39;19.91;100363.50;5017175;28;20163;-72
2022/05/07 05:59:06;;;;;;;10.35;3.35;;;;;;;19.41;20.02;100351.47;5018267;28;20493;-73
2022/05/07 06:01:45;;;;;;;15.25;3.15;;;;;;;19.76;19.68;100363.06;5003314;28;20044;-72
2022/05/07 06:04:23;;;;;;;9.25;2.47;;;;;;;19.64;19.04;100378.16;5016115;28;20064;-71
2022/05/07 06:06:52;;;;;;;4.13;2.33;;;;;;;19.80;18.72;100370.56;5015987;28;20044;-71
2022/05/07 06:09:17;;;;;;;5.70;2.50;;;;;;;20.02;18.69;100365.91;5032178;28;20324;-71
2022/05/07 06:11:46;;;;;;;9.15;2.67;;;;;;;20.28;18.55;100363.31;5016155;28;20436;-71
2022/05/07 06:14:11;;;;;;;11.15;2.92;;;;;;;20.28;18.08;100376.00;5032209;28;20041;-71
2022/05/07 06:16:37;;;;;;;4.53;2.90;;;;;;;20.30;18.18;100373.91;5032178;28;20049;-72
2022/05/07 06:19:08;;;;;;;6.65;2.90;;;;;;;20.26;18.19;100376.22;5032892;28;20072;-71
2022/05/07 06:21:36;;;;;;;12.43;2.42;;;;;;;20.41;17.75;100370.63;5015799;28;20095;-72
2022/05/07 06:29:36;;;;;;;4.93;2.65;;;;;;;20.87;17.32;100353.50;5032405;28;20064;-74
2022/05/07 06:32:03;;;;;;;4.97;2.30;;;;;;;21.13;16.47;100375.13;4982665;28;20044;-74
2022/05/07 06:34:32;;;;;;;7.93;2.50;;;;;;;21.25;16.82;100362.66;5031971;28;20048;-75
2022/05/07 06:36:59;;;;;;;5.97;2.33;;;;;;;21.17;16.44;100357.47;5031848;28;20057;-74
2022/05/07 06:39:28;;;;;;;9.88;2.72;;;;;;;21.24;16.36;100350.19;5015551;28;20094;-76
2022/05/07 06:41:55;;;;;;;8.38;2.75;;;;;;;21.24;16.39;100360.16;4983540;28;20089;-73
2022/05/07 06:44:21;;;;;;;6.00;2.70;;;;;;;21.13;16.46;100360.78;4982956;28;20780;-72
2022/05/07 06:46:50;;;;;;;4.07;2.30;;;;;;;21.28;16.35;100369.53;5019566;28;20102;-73
2022/05/07 06:49:18;;;;;;;7.22;2.60;;;;;;;21.21;16.35;100352.47;4987054;28;20139;-73
2022/05/07 06:51:50;;;;;;;5.00;2.60;;;;;;;21.66;16.29;100362.38;5004240;28;20099;-73
2022/05/07 06:54:17;;;;;;;7.43;2.20;;;;;;;21.96;15.48;100358.16;5018752;28;20052;-74
2022/05/07 06:56:47;;;;;;;6.85;2.35;;;;;;;22.21;15.32;100369.09;5052095;28;20041;-74
2022/05/07 06:59:13;;;;;;;21.70;3.20;;;;;;;22.10;15.33;100350.81;5018688;28;20040;-72
2022/05/07 07:01:39;;;;;;;7.90;2.50;;;;;;;22.31;15.02;100369.47;4985984;28;20562;-72
2022/05/07 07:04:07;;;;;;;4.65;2.67;;;;;;;22.73;15.15;100337.16;5002842;28;20044;-74
2022/05/07 07:06:33;;;;;;;5.15;2.80;;;;;;;22.91;14.48;100345.34;4986279;28;20466;-76
2022/05/07 07:08:59;;;;;;;4.32;2.10;;;;;;;23.28;14.56;100341.72;5018283;28;20087;-79
2022/05/07 07:11:25;;;;;;;6.40;2.30;;;;;;;24.14;14.22;100347.06;5002883;28;20083;-71
2022/05/07 07:13:51;;;;;;;7.15;2.83;;;;;;;24.89;13.30;100349.91;5019023;28;20540;-76
2022/05/07 07:16:17;;;;;;;4.82;2.65;;;;;;;25.50;12.39;100359.59;5035385;28;20086;-77
2022/05/07 07:18:43;;;;;;;6.85;2.20;;;;;;;26.48;12.07;100331.19;5002235;28;20140;-75
2022/05/07 07:21:11;;;;;;;7.80;2.90;;;;;;;27.22;11.58;100390.88;5036009;28;20044;-76
2022/05/07 07:23:37;;;;;;;6.07;2.30;;;;;;;28.59;10.70;100351.56;5003098;28;20071;-72
2022/05/07 07:26:05;;;;;;;3.90;2.22;;;;;;;29.55;9.60;100370.44;5002362;28;20052;-73
2022/05/07 07:28:31;;;;;;;9.20;2.70;;;;;;;29.29;9.22;100338.53;5002033;28;20133;-70
2022/05/07 07:30:58;;;;;;;5.25;2.50;;;;;;;28.91;9.34;100374.28;5002439;28;20540;-70
2022/05/07 07:33:23;;;;;;;7.00;2.70;;;;;;;29.03;9.22;100364.00;5035030;28;20124;-74
2022/05/07 07:35:49;;;;;;;9.00;2.33;;;;;;;29.19;8.94;100384.16;5018254;28;20684;-73
2022/05/07 07:38:15;;;;;;;5.65;2.10;;;;;;;29.45;8.62;100356.72;4985876;28;20045;-74
2022/05/07 07:40:41;;;;;;;6.40;2.63;;;;;;;30.10;8.54;100347.22;5035141;28;20523;-74
2022/05/07 07:43:06;;;;;;;9.13;2.83;;;;;;;30.50;8.30;100350.13;5018370;28;20048;-69
2022/05/07 07:48:16;;;;;;;5.82;2.42;;;;;;;31.35;7.63;100347.50;5051356;28;20080;-69
2022/05/07 07:50:44;;;;;;;7.72;2.40;;;;;;;31.79;7.36;100322.91;5019086;28;20449;-70
2022/05/07 07:53:11;;;;;;;6.00;2.22;;;;;;;31.76;7.04;100354.53;5036401;28;20045;-71
2022/05/07 07:55:37;;;;;;;4.13;1.90;;;;;;;31.86;6.96;100339.97;5050809;28;20064;-71
2022/05/07 07:58:08;;;;;;;8.27;2.00;;;;;;;32.10;6.71;100351.97;5000906;28;20471;-71
2022/05/07 08:00:38;;;;;;;11.60;2.28;;;;;;;31.01;7.07;100368.31;5034335;28;20048;-71
2022/05/07 08:03:17;;;;;;;8.77;2.10;;;;;;;29.70;7.73;100350.59;5018414;28;20037;-69
2022/05/07 08:05:48;;;;;;;3.92;2.10;;;;;;;28.62;8.65;100372.09;5033732;28;20091;-71
2022/05/07 08:13:45;;;;;;;5.38;2.42;;;;;;;28.44;8.73;100334.97;5051980;28;20143;-70
2022/05/07 08:16:11;;;;;;;5.25;2.20;;;;;;;29.03;8.54;100320.22;5017419;28;20056;-72
2022/05/07 08:18:39;;;;;;;8.63;2.30;;;;;;;28.75;8.54;100328.78;5033768;28;20053;-72
2022/05/07 08:21:06;;;;;;;5.70;2.30;;;;;;;29.59;8.09;100333.25;5033797;28;20072;-72
2022/05/07 08:23:32;;;;;;;6.63;2.25;;;;;;;30.40;7.79;100304.31;5017169;28;20049;-71
2022/05/07 08:25:58;;;;;;;6.70;1.98;;;;;;;30.43;7.07;100350.38;5034083;28;20048;-74
2022/05/07 08:28:24;;;;;;;12.68;2.28;;;;;;;30.95;6.80;100317.28;5001136;28;20037;-75
2022/05/07 08:30:53;;;;;;;7.68;2.58;;;;;;;29.97;7.56;100329.34;5033641;28;20579;-72
2022/05/07 08:33:19;;;;;;;10.77;2.42;;;;;;;30.03;7.65;100324.72;5034182;28;20032;-73
2022/05/07 08:35:46;;;;;;;8.63;2.40;;;;;;;30.81;7.09;100340.88;5001281;28;20402;-73
2022/05/07 08:38:12;;;;;;;4.97;2.22;;;;;;;30.44;7.32;100338.31;4983866;28;20801;-73
2022/05/07 08:40:41;;;;;;;3.00;2.08;;;;;;;30.64;7.21;100291.75;4982753;28;20109;-72
2022/05/07 08:43:08;;;;;;;5.25;2.33;;;;;;;31.38;7.04;100294.75;4999340;28;20053;-74
2022/05/07 08:45:35;;;;;;;9.57;2.20;;;;;;;31.44;6.89;100334.84;4999437;28;20052;-72
2022/05/07 08:48:01;;;;;;;12.45;2.15;;;;;;;30.12;7.31;100331.34;5015968;28;20527;-73
2022/05/07 08:50:28;;;;;;;5.50;1.90;;;;;;;30.75;7.39;100339.22;4999522;28;20107;-72
2022/05/07 08:52:54;;;;;;;6.05;2.05;;;;;;;30.65;7.08;100326.28;5032623;28;20492;-68
2022/05/07 08:55:21;;;;;;;5.63;2.25;;;;;;;31.18;7.04;100305.75;4983153;28;20500;-67
2022/05/07 08:57:50;;;;;;;8.25;2.35;;;;;;;30.67;7.19;100288.44;5013646;28;20072;-69
2022/05/07 09:00:21;;;;;;;8.40;2.30;;;;;;;28.89;7.92;100296.34;5030297;28;20037;-68
2022/05/07 09:03:03;;;;;;;3.70;2.20;;;;;;;29.10;7.92;100317.31;5030163;28;20038;-68
2022/05/07 09:05:35;;;;;;;5.55;2.30;;;;;;;30.09;7.96;100255.97;5013621;28;20048;-68
2022/05/07 09:08:01;;;;;;;5.28;2.20;;;;;;;29.86;8.02;100258.38;5029582;28;20072;-68
2022/05/07 09:10:28;;;;;;;5.70;2.20;;;;;;;29.32;7.94;100318.84;5012540;28;20203;-67
2022/05/07 09:12:58;;;;;;;3.65;1.98;;;;;;;28.67;8.11;100320.19;5009938;28;20448;-68
2022/05/07 09:15:26;;;;;;;;;;;;;;;28.17;8.50;100287.66;4994638;28;20512;-68
2022/05/07 09:17:59;;;;;;;7.32;2.53;;;;;;;27.62;9.07;100281.53;4994429;28;19960;-68
2022/05/07 09:20:27;;;;;;;4.15;2.30;;;;;;;27.39;9.62;100251.75;5012596;28;20536;-68
2022/05/07 09:22:55;;;;;;;3.75;2.00;;;;;;;26.91;9.61;100281.56;4996240;28;20045;-68
2022/05/07 09:25:21;;;;;;;7.80;2.50;;;;;;;27.09;9.25;100251.28;5030109;28;20073;-67
2022/05/07 09:27:48;;;;;;;6.40;2.30;;;;;;;27.50;9.35;100242.59;5013467;28;20079;-67
2022/05/07 09:30:24;;;;;;;4.15;2.15;;;;;;;27.37;9.22;100275.75;5013413;28;20060;-68
2022/05/07 09:32:51;;;;;;;5.82;2.33;;;;;;;27.36;9.42;100228.53;5029838;28;20120;-68
2022/05/07 09:38:05;;;;;;;8.90;1.80;;;;;;;27.88;9.09;100243.41;5013316;28;20041;-68
2022/05/07 09:40:34;;;;;;;7.40;2.08;;;;;;;28.45;8.79;100230.03;5029656;28;20049;-68
2022/05/07 09:43:00;;;;;;;3.22;2.10;;;;;;;27.88;9.02;100223.44;5031099;28;20041;-68
2022/05/07 09:45:27;;;;;;;4.38;2.20;;;;;;;27.76;9.00;100244.56;5029621;28;20088;-68
2022/05/07 09:47:55;;;;;;;4.28;2.30;;;;;;;28.06;8.94;100234.03;5029475;28;20132;-68
2022/05/07 09:50:43;;;;;;;7.93;2.10;;;;;;;27.98;9.25;100245.41;4996851;28;20550;-68
2022/05/07 09:58:49;;;;;;;8.40;2.55;;;;;;;29.66;8.44;100223.53;5012899;28;20075;-68
2022/05/07 10:01:21;;;;;;;7.50;2.85;;;;;;;29.80;8.27;100221.09;5013184;28;20034;-68
2022/05/07 10:04:24;;;;;;;5.35;2.80;;;;;;;31.06;7.32;100236.63;5029433;28;20406;-68
2022/05/07 10:07:17;;;;;;;9.70;2.88;;;;;;;32.66;6.43;100221.25;5029465;28;20049;-68
2022/05/07 10:10:06;;;;;;;7.38;2.28;;;;;;;32.86;6.47;100199.06;5030406;28;20053;-68
2022/05/07 10:12:32;;;;;;;7.40;2.50;;;;;;;30.94;7.24;100245.13;5029423;28;20510;-68
2022/05/07 10:15:08;;;;;;;6.07;2.30;;;;;;;30.81;7.22;100210.03;4980149;28;20044;-68
2022/05/07 10:17:35;;;;;;;7.00;4.13;;;;;;;30.30;7.39;100180.13;5029383;28;20507;-69
2022/05/07 10:20:05;;;;;;;9.75;2.35;;;;;;;30.47;7.52;100178.75;4996860;28;20046;-69
2022/05/07 10:22:31;;;;;;;5.72;2.08;;;;;;;31.20;7.38;100204.72;5034129;28;20041;-68
2022/05/07 10:25:04;;;;;;;5.82;1.90;;;;;;;31.01;7.66;100203.69;5000147;28;20550;-69
2022/05/07 10:27:38;;;;;;;4.18;2.33;;;;;;;31.34;7.51;100200.31;5016801;28;20509;-68
2022/05/07 10:30:24;;;;;;;13.10;2.20;;;;;;;31.17;7.42;100209.97;5034643;28;20501;-69
2022/05/07 10:33:03;;;;;;;4.45;2.00;;;;;;;30.30;7.51;100226.72;5001055;28;20083;-69
2022/05/07 10:35:54;;;;;;;4.10;2.10;;;;;;;29.36;8.31;100187.75;5000251;28;20136;-70
2022/05/07 10:38:22;;;;;;;;;;;;;;;29.26;8.34;100183.06;5033237;28;20045;-68
2022/05/07 10:40:57;;;;;;;6.93;2.13;;;;;;;28.93;8.74;100183.41;5016262;28;19921;-68
2022/05/07 10:43:34;;;;;;;3.92;2.42;;;;;;;28.56;8.52;100220.88;4999850;28;20164;-68
2022/05/07 10:46:02;;;;;;;7.95;2.20;;;;;;;28.25;8.56;100175.19;5016162;28;20034;-68
2022/05/07 10:48:28;;;;;;;4.85;2.72;;;;;;;27.13;9.38;100192.44;5033798;28;20525;-68
2022/05/07 10:50:59;;;;;;;8.55;2.30;;;;;;;28.17;8.90;100177.59;5033907;28;20557;-68
2022/05/07 10:53:34;;;;;;;;;;;;;;;29.14;8.35;100178.91;5016754;28;20497;-68
2022/05/07 10:56:00;;;;;;;8.88;2.08;;;;;;;29.02;8.63;100214.66;5033111;28;19917;-68
2022/05/07 10:58:27;;;;;;;8.80;2.38;;;;;;;28.15;8.94;100196.97;5032709;28;20584;-68
2022/05/07 11:00:57;;;;;;;4.55;2.10;;;;;;;27.36;9.68;100152.13;5016447;28;20068;-68
2022/05/07 11:03:30;;;;;;;7.28;2.38;;;;;;;27.24;9.57;100175.97;5033714;28;20043;-68
2022/05/07 11:06:00;;;;;;;3.78;2.17;;;;;;;27.66;9.58;100173.50;5015814;28;20049;-68
2022/05/07 11:08:29;;;;;;;6.15;1.95;;;;;;;26.41;10.33;100146.09;5033549;28;20069;-68
2022/05/07 11:11:10;;;;;;;8.32;2.10;;;;;;;27.40;10.07;100166.09;5016186;28;20128;-68
2022/05/07 11:13:55;;;;;;;5.13;2.10;;;;;;;27.38;9.81;100165.50;5015983;28;20460;-68
2022/05/07 11:16:22;;;;;;;7.28;2.15;;;;;;;27.37;9.65;100147.50;5033393;28;20041;-68
2022/05/07 11:18:53;;;;;;;5.22;2.40;;;;;;;27.03;10.17;100149.47;5031752;28;20057;-68
2022/05/07 11:21:20;;;;;;;6.20;2.10;;;;;;;26.48;10.60;100139.66;5015594;28;20033;-68
2022/05/07 11:24:01;;;;;;;6.93;2.45;;;;;;;26.10;11.07;100165.72;5033225;28;20060;-68
2022/05/07 11:26:27;;;;;;;9.20;2.35;;;;;;;25.58;10.97;100161.47;4999099;28;20501;-68
2022/05/07 11:28:54;;;;;;;4.13;2.42;;;;;;;25.09;11.83;100162.03;5015505;28;20045;-68
2022/05/07 11:31:25;;;;;;;6.75;2.00;;;;;;;24.88;12.03;100144.47;4999019;28;20043;-68
2022/05/07 11:34:06;;;;;;;5.65;2.08;;;;;;;24.96;11.77;100140.53;5032203;28;20053;-68
2022/05/07 11:36:32;;;;;;;5.68;2.22;;;;;;;24.48;12.31;100146.22;5031584;28;20494;-68
2022/05/07 11:39:00;;;;;;;5.10;2.50;;;;;;;24.36;12.20;100120.09;5033011;28;20029;-68
2022/05/07 11:41:25;;;;;;;6.03;2.20;;;;;;;24.37;11.99;100127.22;5015069;28;20068;-68
2022/05/07 11:46:53;;;;;;;3.17;1.83;;;;;;;24.57;12.29;100173.88;5032662;28;20045;-68
2022/05/07 11:49:28;;;;;;;5.90;2.42;;;;;;;24.63;12.52;100115.88;5015229;28;20502;-68
2022/05/07 11:52:27;;;;;;;8.25;2.50;;;;;;;24.71;12.93;100094.63;5032926;28;20103;-68
2022/05/07 11:54:52;;;;;;;5.40;2.00;;;;;;;24.54;12.67;100103.72;5007576;28;20410;-69
2022/05/07 11:57:32;;;;;;;9.23;2.42;;;;;;;25.20;12.09;100093.19;5031516;28;20042;-68
2022/05/07 12:00:14;;;;;;;9.18;2.47;;;;;;;25.14;12.34;100085.19;5031097;28;20469;-68
2022/05/07 12:02:44;;;;;;;9.77;2.30;;;;;;;25.25;12.29;100095.22;5032913;28;20045;-68
2022/05/07 12:05:10;;;;;;;4.18;2.58;;;;;;;25.42;12.10;100075.19;5031667;28;20077;-68
2022/05/07 12:07:39;;;;;;;5.43;1.95;;;;;;;25.64;11.78;100091.63;5014855;28;20065;-68
2022/05/07 12:10:10;;;;;;;3.53;1.95;;;;;;;25.44;12.12;100113.84;4998491;28;20608;-68
2022/05/07 12:12:37;;;;;;;8.95;2.20;;;;;;;24.77;12.55;100098.28;5031033;28;20508;-68
2022/05/07 12:15:03;;;;;;;7.10;2.88;;;;;;;24.37;12.45;100075.63;5031025;28;20769;-69